createdAt,value
2019-03-16T00:00:12.725Z,3.20
2019-03-16T00:02:41.511Z,3.20
2019-03-16T00:05:10.334Z,3.20
2019-03-16T00:07:39.189Z,3.20
2019-03-16T00:10:08.219Z,3.20
2019-03-16T00:12:36.999Z,3.20
2019-03-16T00:15:07.130Z,3.20
2019-03-16T00:17:35.922Z,3.30
2019-03-16T00:20:07.834Z,3.30
2019-03-16T00:22:36.681Z,3.30
2019-03-16T00:25:07.904Z,3.20
2019-03-16T00:27:36.736Z,3.20
2019-03-16T00:30:15.232Z,3.20
2019-03-16T00:32:44.418Z,3.20
2019-03-16T00:35:13.590Z,3.20
2019-03-16T00:37:42.397Z,3.30
2019-03-16T00:40:12.708Z,3.30
2019-03-16T00:42:41.550Z,3.30
2019-03-16T00:45:12.091Z,3.30
2019-03-16T00:47:40.888Z,3.30
2019-03-16T00:50:11.184Z,3.20
2019-03-16T00:52:40.343Z,3.20
2019-03-16T00:55:10.323Z,3.20
2019-03-16T00:57:40.035Z,3.20
2019-03-16T01:00:11.674Z,3.20
2019-03-16T01:02:40.513Z,3.20
2019-03-16T01:05:09.741Z,3.20
2019-03-16T01:07:38.596Z,3.20
2019-03-16T01:10:09.332Z,3.20
2019-03-16T01:12:38.218Z,3.20
2019-03-16T01:15:09.528Z,3.20
2019-03-16T01:17:38.329Z,3.20
2019-03-16T01:20:09.563Z,3.20
2019-03-16T01:22:38.412Z,3.10
2019-03-16T01:25:07.915Z,3.10
2019-03-16T01:27:36.744Z,3.10
2019-03-16T01:30:11.520Z,3.10
2019-03-16T01:32:41.126Z,3.10
2019-03-16T01:35:10.122Z,3.10
2019-03-16T01:37:38.955Z,3.10
2019-03-16T01:40:09.892Z,3.10
2019-03-16T01:42:38.670Z,3.10
2019-03-16T01:45:09.189Z,3.10
2019-03-16T01:47:40.289Z,3.10
2019-03-16T01:50:10.481Z,3.10
2019-03-16T01:52:39.692Z,3.10
2019-03-16T01:55:09.322Z,3.10
2019-03-16T01:57:59.305Z,3.10
2019-03-16T02:00:28.490Z,3.10
2019-03-16T02:02:57.567Z,3.10
2019-03-16T02:05:26.588Z,3.10
2019-03-16T02:07:55.425Z,3.10
2019-03-16T02:10:24.228Z,3.10
2019-03-16T02:12:53.067Z,3.10
2019-03-16T02:15:21.895Z,3.10
2019-03-16T02:17:50.662Z,3.10
2019-03-16T02:20:19.453Z,3.10
2019-03-16T02:22:48.294Z,3.20
2019-03-16T02:25:18.304Z,3.20
2019-03-16T02:27:47.038Z,3.20
2019-03-16T02:30:15.861Z,3.20
2019-03-16T02:32:44.762Z,3.30
2019-03-16T02:35:13.603Z,3.20
2019-03-16T02:37:42.425Z,3.20
2019-03-16T02:40:11.654Z,3.20
2019-03-16T02:42:40.445Z,3.20
2019-03-16T02:45:10.402Z,3.20
2019-03-16T02:47:39.222Z,3.20
2019-03-16T02:50:10.223Z,3.20
2019-03-16T02:52:39.054Z,3.20
2019-03-16T02:55:09.091Z,3.20
2019-03-16T02:57:37.919Z,3.20
2019-03-16T03:00:14.242Z,3.10
2019-03-16T03:02:43.093Z,3.10
2019-03-16T03:05:12.398Z,3.10
2019-03-16T03:07:42.141Z,3.10
2019-03-16T03:10:12.851Z,3.10
2019-03-16T03:12:41.660Z,3.10
2019-03-16T03:15:10.802Z,3.00
2019-03-16T03:17:39.687Z,3.00
2019-03-16T03:20:11.429Z,3.10
2019-03-16T03:22:40.211Z,3.00
2019-03-16T03:25:09.548Z,3.00
2019-03-16T03:27:38.451Z,3.00
2019-03-16T03:30:10.809Z,3.00
2019-03-16T03:32:39.733Z,3.00
2019-03-16T03:35:09.549Z,3.00
2019-03-16T03:37:38.379Z,3.00
2019-03-16T03:40:09.290Z,3.00
2019-03-16T03:42:38.422Z,2.90
2019-03-16T03:45:09.787Z,2.90
2019-03-16T03:47:38.646Z,2.90
2019-03-16T03:50:12.867Z,2.90
2019-03-16T03:52:41.730Z,2.90
2019-03-16T03:55:13.109Z,2.90
2019-03-16T03:57:42.515Z,2.90
2019-03-16T04:00:18.916Z,2.90
2019-03-16T04:02:48.303Z,2.90
2019-03-16T04:05:17.128Z,2.90
2019-03-16T04:07:45.895Z,2.90
2019-03-16T04:10:14.921Z,2.90
2019-03-16T04:12:43.734Z,2.90
2019-03-16T04:15:13.526Z,2.90
2019-03-16T04:17:42.393Z,2.90
2019-03-16T04:20:15.204Z,2.90
2019-03-16T04:22:44.100Z,2.90
2019-03-16T04:25:12.973Z,2.90
2019-03-16T04:27:41.771Z,2.90
2019-03-16T04:30:12.314Z,2.90
2019-03-16T04:32:41.124Z,2.90
2019-03-16T04:35:09.955Z,2.90
2019-03-16T04:37:38.742Z,2.90
2019-03-16T04:40:09.449Z,2.90
2019-03-16T04:42:39.191Z,2.90
2019-03-16T04:45:10.023Z,2.90
2019-03-16T04:47:38.819Z,2.90
2019-03-16T04:50:12.537Z,3.00
2019-03-16T04:52:42.296Z,3.00
2019-03-16T04:55:12.106Z,3.00
2019-03-16T04:57:41.975Z,3.00
2019-03-16T05:00:13.007Z,3.00
2019-03-16T05:02:41.820Z,3.00
2019-03-16T05:05:10.669Z,3.00
2019-03-16T05:07:39.470Z,3.00
2019-03-16T05:10:10.565Z,3.00
2019-03-16T05:12:39.398Z,3.00
2019-03-16T05:15:09.411Z,3.00
2019-03-16T05:17:38.213Z,3.00
2019-03-16T05:20:10.026Z,3.00
2019-03-16T05:22:38.871Z,2.90
2019-03-16T05:25:10.032Z,2.90
2019-03-16T05:27:38.866Z,2.90
2019-03-16T05:30:12.967Z,2.90
2019-03-16T05:32:41.768Z,3.00
2019-03-16T05:35:10.634Z,3.00
2019-03-16T05:37:39.402Z,3.00
2019-03-16T05:40:09.847Z,3.00
2019-03-16T05:42:38.651Z,3.00
2019-03-16T05:45:10.526Z,3.00
2019-03-16T05:47:39.282Z,3.00
2019-03-16T05:50:11.074Z,3.00
2019-03-16T05:52:40.161Z,3.00
2019-03-16T05:55:09.463Z,3.00
2019-03-16T05:57:38.659Z,3.00
2019-03-16T06:00:13.756Z,2.90
2019-03-16T06:02:42.890Z,2.90
2019-03-16T06:05:11.715Z,2.90
2019-03-16T06:07:40.505Z,2.90
2019-03-16T06:10:11.092Z,2.90
2019-03-16T06:12:39.931Z,2.90
2019-03-16T06:15:10.250Z,2.90
2019-03-16T06:17:39.246Z,2.90
2019-03-16T06:20:14.858Z,2.90
2019-03-16T06:22:43.573Z,2.90
2019-03-16T06:25:12.360Z,2.90
2019-03-16T06:27:41.199Z,2.90
2019-03-16T06:30:17.042Z,2.90
2019-03-16T06:32:45.779Z,2.90
2019-03-16T06:35:24.337Z,2.90
2019-03-16T06:37:45.289Z,2.90
2019-03-16T06:40:14.152Z,2.90
2019-03-16T06:42:42.913Z,2.90
2019-03-16T06:45:12.595Z,2.90
2019-03-16T06:47:41.385Z,2.90
2019-03-16T06:50:15.664Z,2.90
2019-03-16T06:52:44.630Z,2.90
2019-03-16T06:55:13.503Z,2.90
2019-03-16T06:57:43.543Z,2.90
2019-03-16T07:00:17.251Z,2.90
2019-03-16T07:02:47.015Z,2.90
2019-03-16T07:05:19.386Z,3.00
2019-03-16T07:07:46.647Z,3.00
2019-03-16T07:10:15.547Z,3.00
2019-03-16T07:12:44.651Z,3.00
2019-03-16T07:15:14.612Z,3.00
2019-03-16T07:17:43.433Z,3.00
2019-03-16T07:20:13.646Z,3.00
2019-03-16T07:22:42.474Z,3.10
2019-03-16T07:25:11.267Z,3.10
2019-03-16T07:27:40.178Z,3.10
2019-03-16T07:30:15.496Z,3.10
2019-03-16T07:32:44.307Z,3.10
2019-03-16T07:35:13.122Z,3.20
2019-03-16T07:37:41.993Z,3.20
2019-03-16T07:40:13.154Z,3.20
2019-03-16T07:42:41.988Z,3.20
2019-03-16T07:45:12.192Z,3.30
2019-03-16T07:47:41.018Z,3.30
2019-03-16T07:50:12.468Z,3.30
2019-03-16T07:52:42.041Z,3.30
2019-03-16T07:55:11.303Z,3.40
2019-03-16T07:57:41.115Z,3.40
2019-03-16T08:00:13.889Z,3.40
2019-03-16T08:02:42.735Z,3.50
2019-03-16T08:05:18.566Z,3.50
2019-03-16T08:07:42.330Z,3.50
2019-03-16T08:10:11.735Z,3.60
2019-03-16T08:12:40.537Z,3.60
2019-03-16T08:15:10.438Z,3.60
2019-03-16T08:17:39.285Z,3.70
2019-03-16T08:20:09.326Z,3.70
2019-03-16T08:22:38.163Z,3.70
2019-03-16T08:25:08.208Z,3.80
2019-03-16T08:27:37.355Z,3.80
2019-03-16T08:30:11.650Z,3.80
2019-03-16T08:32:42.042Z,3.80
2019-03-16T08:35:10.845Z,3.90
2019-03-16T08:37:39.648Z,3.90
2019-03-16T08:40:10.421Z,3.90
2019-03-16T08:42:39.364Z,4.00
2019-03-16T08:45:09.913Z,4.00
2019-03-16T08:47:38.830Z,4.00
2019-03-16T08:50:08.990Z,4.00
2019-03-16T08:52:37.877Z,4.10
2019-03-16T08:55:08.323Z,4.10
2019-03-16T08:57:37.165Z,4.10
2019-03-16T09:00:08.974Z,4.10
2019-03-16T09:02:37.799Z,4.20
2019-03-16T09:05:07.616Z,4.20
2019-03-16T09:07:36.469Z,4.20
2019-03-16T09:10:07.376Z,4.20
2019-03-16T09:12:36.161Z,4.30
2019-03-16T09:15:08.135Z,4.30
2019-03-16T09:17:36.912Z,4.30
2019-03-16T09:20:07.785Z,4.40
2019-03-16T09:22:36.506Z,4.40
2019-03-16T09:25:07.906Z,4.40
2019-03-16T09:27:36.745Z,4.40
2019-03-16T09:30:11.421Z,4.50
2019-03-16T09:32:40.807Z,4.50
2019-03-16T09:35:09.640Z,4.50
2019-03-16T09:37:38.490Z,4.60
2019-03-16T09:40:09.674Z,4.60
2019-03-16T09:42:38.400Z,4.60
2019-03-16T09:45:12.217Z,4.70
2019-03-16T09:47:41.016Z,4.70
2019-03-16T09:50:10.872Z,4.70
2019-03-16T09:52:39.865Z,4.80
2019-03-16T09:55:10.651Z,4.80
2019-03-16T09:57:39.455Z,4.90
2019-03-16T10:00:11.556Z,5.00
2019-03-16T10:02:40.363Z,5.00
2019-03-16T10:05:09.166Z,5.00
2019-03-16T10:07:37.997Z,5.00
2019-03-16T10:10:12.247Z,5.10
2019-03-16T10:12:41.059Z,5.00
2019-03-16T10:15:11.954Z,5.10
2019-03-16T10:17:40.818Z,5.10
2019-03-16T10:20:14.166Z,5.10
2019-03-16T10:22:43.134Z,5.20
2019-03-16T10:25:11.968Z,5.20
2019-03-16T10:27:40.813Z,5.20
2019-03-16T10:30:11.788Z,5.20
2019-03-16T10:32:40.561Z,5.20
2019-03-16T10:35:09.529Z,5.20
2019-03-16T10:37:38.656Z,5.20
2019-03-16T10:40:12.148Z,5.20
2019-03-16T10:42:40.956Z,5.30
2019-03-16T10:45:11.249Z,5.30
2019-03-16T10:47:40.043Z,5.20
2019-03-16T10:50:11.882Z,5.20
2019-03-16T10:52:40.659Z,5.20
2019-03-16T10:55:09.488Z,5.10
2019-03-16T10:57:38.317Z,5.10
2019-03-16T11:00:17.559Z,5.10
2019-03-16T11:02:46.702Z,5.10
2019-03-16T11:05:15.603Z,5.10
2019-03-16T11:07:44.364Z,5.10
2019-03-16T11:10:14.581Z,4.90
2019-03-16T11:12:43.408Z,4.90
2019-03-16T11:15:13.166Z,4.90
2019-03-16T11:17:41.968Z,4.80
2019-03-16T11:20:12.269Z,4.80
2019-03-16T11:22:41.103Z,4.80
2019-03-16T11:25:09.945Z,4.80
2019-03-16T11:27:38.754Z,4.80
2019-03-16T11:30:13.233Z,4.80
2019-03-16T11:32:42.025Z,4.70
2019-03-16T11:35:11.436Z,4.70
2019-03-16T11:37:40.229Z,4.70
2019-03-16T11:40:12.449Z,4.70
2019-03-16T11:42:41.737Z,4.70
2019-03-16T11:45:11.798Z,4.60
2019-03-16T11:47:40.561Z,4.50
2019-03-16T11:50:10.589Z,4.50
2019-03-16T11:52:39.676Z,4.40
2019-03-16T11:55:09.737Z,4.30
2019-03-16T11:57:38.845Z,4.30
2019-03-16T12:00:11.570Z,4.30
2019-03-16T12:02:40.345Z,4.30
2019-03-16T12:05:11.114Z,4.20
2019-03-16T12:07:39.948Z,4.20
2019-03-16T12:10:15.916Z,4.00
2019-03-16T12:12:44.674Z,4.00
2019-03-16T12:15:14.520Z,3.90
2019-03-16T12:17:43.363Z,3.80
2019-03-16T12:20:17.691Z,3.80
2019-03-16T12:22:45.133Z,3.80
2019-03-16T12:25:14.553Z,3.80
2019-03-16T12:27:43.350Z,3.70
2019-03-16T12:30:15.973Z,3.70
2019-03-16T12:32:45.122Z,3.50
2019-03-16T12:35:13.951Z,3.50
2019-03-16T12:37:42.755Z,3.50
2019-03-16T12:40:13.955Z,3.50
2019-03-16T12:42:42.732Z,3.60
2019-03-16T12:45:15.883Z,3.50
2019-03-16T12:47:44.694Z,3.40
2019-03-16T12:50:13.675Z,3.50
2019-03-16T12:52:42.471Z,3.50
2019-03-16T12:55:12.065Z,3.50
2019-03-16T12:57:41.276Z,3.50
2019-03-16T13:00:15.245Z,3.40
2019-03-16T13:02:44.074Z,3.50
2019-03-16T13:05:14.732Z,3.40
2019-03-16T13:07:44.469Z,3.30
2019-03-16T13:10:15.597Z,3.30
2019-03-16T13:12:44.466Z,3.30
2019-03-16T13:15:13.358Z,3.30
2019-03-16T13:17:42.165Z,3.30
2019-03-16T13:20:15.922Z,3.30
2019-03-16T13:22:45.688Z,3.20
2019-03-16T13:25:14.623Z,3.20
2019-03-16T13:27:43.404Z,3.10
2019-03-16T13:30:17.134Z,3.10
2019-03-16T13:32:45.945Z,3.10
2019-03-16T13:35:14.750Z,3.10
2019-03-16T13:37:43.979Z,3.10
2019-03-16T13:40:14.496Z,3.10
2019-03-16T13:42:43.316Z,3.10
2019-03-16T13:45:12.310Z,3.10
2019-03-16T13:47:41.513Z,3.00
2019-03-16T13:50:20.444Z,3.00
2019-03-16T13:52:49.588Z,3.00
2019-03-16T13:55:18.385Z,2.90
2019-03-16T13:57:47.187Z,2.90
2019-03-16T14:00:21.489Z,3.00
2019-03-16T14:02:50.305Z,3.00
2019-03-16T14:05:19.140Z,3.00
2019-03-16T14:07:47.986Z,2.90
2019-03-16T14:10:22.052Z,2.90
2019-03-16T14:12:50.878Z,2.90
2019-03-16T14:15:19.716Z,2.90
2019-03-16T14:17:48.504Z,2.90
2019-03-16T14:20:17.829Z,2.90
2019-03-16T14:22:46.927Z,2.80
2019-03-16T14:25:17.367Z,2.80
2019-03-16T14:27:46.195Z,2.90
2019-03-16T14:30:39.462Z,2.90
2019-03-16T14:32:50.805Z,2.90
2019-03-16T14:35:19.634Z,2.90
2019-03-16T14:37:48.430Z,2.90
2019-03-16T14:40:17.345Z,2.90
2019-03-16T14:42:46.272Z,2.90
2019-03-16T14:45:16.151Z,2.90
2019-03-16T14:47:45.373Z,2.90
2019-03-16T14:50:17.200Z,3.00
2019-03-16T14:52:46.240Z,2.90
2019-03-16T14:55:15.497Z,2.90
2019-03-16T14:57:44.403Z,2.90
2019-03-16T15:00:19.601Z,2.90
2019-03-16T15:02:48.430Z,2.90
2019-03-16T15:05:17.243Z,2.90
2019-03-16T15:07:49.409Z,2.80
2019-03-16T15:10:19.756Z,2.80
2019-03-16T15:12:48.987Z,2.80
2019-03-16T15:15:19.894Z,2.90
2019-03-16T15:17:49.393Z,2.90
2019-03-16T15:20:18.247Z,2.90
2019-03-16T15:22:47.066Z,2.90
2019-03-16T15:25:16.136Z,2.90
2019-03-16T15:27:44.965Z,3.00
2019-03-16T15:30:18.815Z,3.00
2019-03-16T15:32:47.667Z,3.00
2019-03-16T15:35:16.455Z,3.00
2019-03-16T15:37:45.300Z,2.90
2019-03-16T15:40:14.991Z,3.00
2019-03-16T15:42:43.841Z,3.10
2019-03-16T15:45:20.609Z,3.00
2019-03-16T15:47:49.466Z,3.00
2019-03-16T15:50:18.597Z,3.00
2019-03-16T15:52:47.440Z,3.00
2019-03-16T15:55:16.255Z,3.00
2019-03-16T15:57:45.107Z,3.00
2019-03-16T16:00:18.853Z,3.00
2019-03-16T16:02:50.347Z,3.00
2019-03-16T16:05:18.847Z,3.00
2019-03-16T16:07:47.693Z,3.00
2019-03-16T16:10:17.823Z,3.00
2019-03-16T16:12:46.620Z,3.00
2019-03-16T16:15:15.999Z,3.10
2019-03-16T16:17:46.324Z,3.10
2019-03-16T16:20:17.698Z,3.10
2019-03-16T16:22:47.606Z,3.10
2019-03-16T16:25:22.501Z,3.10
2019-03-16T16:27:55.232Z,3.10
2019-03-16T16:30:25.889Z,3.10
2019-03-16T16:33:01.310Z,3.10
2019-03-16T16:35:32.305Z,3.10
2019-03-16T16:38:03.019Z,3.10
2019-03-16T16:40:36.782Z,3.10
2019-03-16T16:43:06.305Z,3.10
2019-03-16T16:45:38.806Z,3.10
2019-03-16T16:48:11.122Z,3.10
2019-03-16T16:50:41.927Z,3.20
2019-03-16T16:53:13.708Z,3.20
2019-03-16T16:55:42.811Z,3.20
2019-03-16T16:58:12.861Z,3.10
2019-03-16T17:00:43.118Z,3.10
2019-03-16T17:03:18.013Z,3.10
2019-03-16T17:05:50.662Z,3.00
2019-03-16T17:08:21.327Z,3.00
2019-03-16T17:10:50.168Z,2.90
2019-03-16T17:13:19.427Z,2.90
2019-03-16T17:15:53.824Z,2.80
2019-03-16T17:18:27.442Z,2.80
2019-03-16T17:21:00.159Z,2.70
2019-03-16T17:23:32.628Z,2.70
2019-03-16T17:26:12.701Z,2.70
2019-03-16T17:28:45.352Z,2.70
2019-03-16T17:31:16.422Z,2.70
2019-03-16T17:33:46.205Z,2.60
2019-03-16T17:36:22.247Z,2.60
2019-03-16T17:38:54.051Z,2.50
2019-03-16T17:41:24.286Z,2.50
2019-03-16T17:43:54.060Z,2.40
2019-03-16T17:46:24.481Z,2.40
2019-03-16T17:48:54.607Z,2.30
2019-03-16T17:51:28.703Z,2.20
2019-03-16T17:53:59.861Z,2.30
2019-03-16T17:56:30.779Z,2.20
2019-03-16T17:59:05.708Z,2.20
2019-03-16T18:01:37.720Z,2.20
2019-03-16T18:04:13.237Z,2.10
2019-03-16T18:06:43.200Z,2.00
2019-03-16T18:09:12.509Z,2.00
2019-03-16T18:11:44.553Z,2.00
2019-03-16T18:14:16.606Z,1.90
2019-03-16T18:16:48.084Z,1.90
2019-03-16T18:19:18.410Z,1.90
2019-03-16T18:21:48.167Z,1.90
2019-03-16T18:24:28.425Z,1.90
2019-03-16T18:26:58.260Z,1.90
2019-03-16T18:29:30.592Z,2.00
2019-03-16T18:32:09.217Z,2.00
2019-03-16T18:34:39.028Z,2.10
2019-03-16T18:37:09.455Z,2.10
2019-03-16T18:39:43.246Z,2.20
2019-03-16T18:42:13.712Z,2.20
2019-03-16T18:44:46.739Z,2.10
2019-03-16T18:47:22.342Z,2.10
2019-03-16T18:49:53.182Z,2.10
2019-03-16T18:52:29.848Z,2.20
2019-03-16T18:55:01.508Z,2.20
2019-03-16T18:57:31.231Z,2.30
2019-03-16T19:00:03.976Z,2.30
2019-03-16T19:02:35.026Z,2.30
2019-03-16T19:05:07.955Z,2.30
2019-03-16T19:07:41.993Z,2.30
2019-03-16T19:10:15.667Z,2.30
2019-03-16T19:12:47.406Z,2.30
2019-03-16T19:15:19.748Z,2.40
2019-03-16T19:17:58.748Z,2.40
2019-03-16T19:20:23.734Z,2.40
2019-03-16T19:22:56.018Z,2.40
2019-03-16T19:25:27.386Z,2.40
2019-03-16T19:27:58.087Z,2.40
2019-03-16T19:30:32.626Z,2.40
2019-03-16T19:33:06.008Z,2.40
2019-03-16T19:35:48.818Z,2.40
2019-03-16T19:38:18.064Z,2.40
2019-03-16T19:40:48.940Z,2.40
2019-03-16T19:43:19.412Z,2.40
2019-03-16T19:45:49.791Z,2.40
2019-03-16T19:48:21.698Z,2.50
2019-03-16T19:50:52.450Z,2.40
2019-03-16T19:53:24.224Z,2.40
2019-03-16T19:55:56.537Z,2.40
2019-03-16T19:58:33.873Z,2.40
2019-03-16T20:01:07.587Z,2.40
2019-03-16T20:03:42.155Z,2.40
2019-03-16T20:06:25.730Z,2.40
2019-03-16T20:08:50.125Z,2.40
2019-03-16T20:11:24.556Z,2.40
2019-03-16T20:13:55.704Z,2.40
2019-03-16T20:16:28.497Z,2.50
2019-03-16T20:19:02.773Z,2.50
2019-03-16T20:21:34.078Z,2.50
2019-03-16T20:24:04.504Z,2.60
2019-03-16T20:26:40.216Z,2.60
2019-03-16T20:29:11.123Z,2.50
2019-03-16T20:31:47.122Z,2.30
2019-03-16T20:34:25.528Z,2.20
2019-03-16T20:36:55.437Z,2.00
2019-03-16T20:39:28.206Z,2.00
2019-03-16T20:41:59.953Z,2.10
2019-03-16T20:44:31.660Z,2.20
2019-03-16T20:47:02.286Z,2.20
2019-03-16T20:49:40.149Z,2.30
2019-03-16T20:52:10.470Z,2.40
2019-03-16T20:54:44.205Z,2.40
2019-03-16T20:57:14.205Z,2.40
2019-03-16T20:59:46.519Z,2.50
2019-03-16T21:02:17.847Z,2.50
2019-03-16T21:04:50.005Z,2.50
2019-03-16T21:07:22.116Z,2.50
2019-03-16T21:09:53.406Z,2.50
2019-03-16T21:12:23.965Z,2.50
2019-03-16T21:14:55.158Z,2.50
2019-03-16T21:17:26.179Z,2.50
2019-03-16T21:19:56.438Z,2.50
2019-03-16T21:22:35.577Z,2.50
2019-03-16T21:25:13.857Z,2.50
2019-03-16T21:27:44.590Z,2.50
2019-03-16T21:30:20.521Z,2.50
2019-03-16T21:32:52.828Z,2.50
2019-03-16T21:35:29.435Z,2.50
2019-03-16T21:38:02.270Z,2.50
2019-03-16T21:43:26.039Z,2.60
2019-03-16T21:46:00.700Z,2.60
2019-03-16T21:48:31.056Z,2.60
2019-03-16T21:51:07.061Z,2.60
2019-03-16T21:53:37.467Z,2.60
2019-03-16T21:56:13.235Z,2.60
2019-03-16T21:58:45.337Z,2.60
2019-03-16T22:01:17.395Z,2.60
2019-03-16T22:03:46.501Z,2.70
2019-03-16T22:06:18.946Z,2.70
2019-03-16T22:08:51.045Z,2.60
2019-03-16T22:11:22.887Z,2.70
2019-03-16T22:13:53.141Z,2.70
2019-03-16T22:16:25.765Z,2.70
2019-03-16T22:18:58.875Z,2.70
2019-03-16T22:21:36.269Z,2.70
2019-03-16T22:24:08.560Z,2.70
2019-03-16T22:26:39.978Z,2.70
2019-03-16T22:29:13.026Z,2.70
2019-03-16T22:31:46.221Z,2.70
2019-03-16T22:34:18.201Z,2.70
2019-03-16T22:36:48.574Z,2.80
2019-03-16T22:39:19.831Z,2.80
2019-03-16T22:41:50.181Z,2.80
2019-03-16T22:44:20.326Z,2.80
2019-03-16T22:46:56.504Z,2.80
2019-03-16T22:49:26.165Z,2.80
2019-03-16T22:52:00.533Z,2.80
2019-03-16T22:54:30.650Z,2.80
2019-03-16T22:57:00.092Z,2.70
2019-03-16T22:59:29.923Z,2.50
2019-03-16T23:02:00.248Z,2.40
2019-03-16T23:04:34.709Z,2.30
2019-03-16T23:07:28.506Z,2.40
2019-03-16T23:09:57.338Z,2.50
2019-03-16T23:12:26.184Z,2.60
2019-03-16T23:14:55.012Z,2.70
2019-03-16T23:17:23.747Z,2.60
2019-03-16T23:19:52.698Z,2.60
2019-03-16T23:22:21.941Z,2.70
2019-03-16T23:24:50.731Z,2.70
2019-03-16T23:27:19.554Z,2.60
2019-03-16T23:29:48.345Z,2.50
2019-03-16T23:32:17.190Z,2.30
2019-03-16T23:34:46.026Z,2.30
2019-03-16T23:37:14.831Z,2.20
2019-03-16T23:39:43.687Z,2.00
2019-03-16T23:42:12.489Z,1.90
2019-03-16T23:44:41.284Z,1.70
2019-03-16T23:47:10.111Z,1.70
2019-03-16T23:49:38.910Z,1.60
2019-03-16T23:52:07.754Z,1.60
2019-03-16T23:54:36.559Z,1.70
2019-03-16T23:57:05.372Z,1.70
2019-03-16T23:59:35.171Z,1.80
